createdAt,value
2019-05-02T00:00:09.296Z,76.7117
2019-05-02T00:01:12.304Z,76.8734
2019-05-02T00:02:15.338Z,76.9512
2019-05-02T00:03:18.310Z,76.8917
2019-05-02T00:04:21.359Z,77.1206
2019-05-02T00:05:27.393Z,77.4533
2019-05-02T00:06:32.280Z,77.8149
2019-05-02T00:07:34.372Z,78.2193
2019-05-02T00:08:37.281Z,78.7121
2019-05-02T00:09:47.367Z,78.8098
2019-05-02T00:10:48.332Z,78.9883
2019-05-02T00:11:58.609Z,79.0463
2019-05-02T00:12:59.374Z,79.1577
2019-05-02T00:14:04.279Z,79.6521
2019-05-02T00:15:07.298Z,79.2752
2019-05-02T00:16:14.025Z,79.5590
2019-05-02T00:17:20.435Z,79.8474
2019-05-02T00:18:26.333Z,80.0046
2019-05-02T00:19:29.292Z,80.1373
2019-05-02T00:20:31.291Z,80.0732
2019-05-02T00:21:38.275Z,80.4623
2019-05-02T00:22:42.300Z,80.5112
2019-05-02T00:23:45.315Z,80.2045
2019-05-02T00:24:48.299Z,80.5158
2019-05-02T00:25:52.681Z,80.4669
2019-05-02T00:27:01.368Z,80.8957
2019-05-02T00:28:07.795Z,80.9659
2019-05-02T00:29:13.340Z,80.9476
2019-05-02T00:30:16.312Z,81.1765
2019-05-02T00:31:19.289Z,81.3321
2019-05-02T00:32:23.621Z,81.3779
2019-05-02T00:33:29.139Z,81.1749
2019-05-02T00:34:34.314Z,81.6251
2019-05-02T00:35:40.887Z,81.8906
2019-05-02T00:36:45.286Z,81.7151
2019-05-02T00:37:48.282Z,81.4694
2019-05-02T00:38:51.325Z,81.6785
2019-05-02T00:39:54.289Z,82.0554
2019-05-02T00:41:01.731Z,82.1546
2019-05-02T00:42:12.339Z,82.2232
2019-05-02T00:43:13.294Z,82.1195
2019-05-02T00:44:16.299Z,82.0783
2019-05-02T00:45:23.945Z,82.1088
2019-05-02T00:46:30.355Z,82.0859
2019-05-02T00:47:35.336Z,82.2248
2019-05-02T00:48:38.297Z,82.2339
2019-05-02T00:49:41.343Z,82.2339
2019-05-02T00:50:45.264Z,82.3789
2019-05-02T00:51:52.289Z,82.4338
2019-05-02T00:52:55.304Z,82.7512
2019-05-02T00:53:58.292Z,82.5910
2019-05-02T00:55:01.345Z,82.4262
2019-05-02T00:56:05.137Z,82.3331
2019-05-02T00:57:14.954Z,82.3941
2019-05-02T00:58:19.265Z,82.3026
2019-05-02T00:59:22.284Z,82.2278
2019-05-02T01:00:25.323Z,83.0060
2019-05-02T01:01:29.724Z,82.9648
2019-05-02T01:02:35.843Z,83.6423
2019-05-02T01:03:42.270Z,83.6103
2019-05-02T01:04:45.327Z,83.8483
2019-05-02T01:05:48.307Z,83.8453
2019-05-02T01:06:51.361Z,84.2390
2019-05-02T01:07:56.141Z,84.2298
2019-05-02T01:09:05.860Z,84.2145
2019-05-02T01:10:10.286Z,84.2786
2019-05-02T01:11:13.290Z,84.1703
2019-05-02T01:12:26.117Z,84.1459
2019-05-02T01:13:24.333Z,83.9170
2019-05-02T01:14:31.643Z,83.9399
2019-05-02T01:15:39.028Z,84.0513
2019-05-02T01:16:43.278Z,84.2298
2019-05-02T01:17:46.315Z,84.1154
2019-05-02T01:18:49.330Z,83.9307
2019-05-02T01:19:52.743Z,83.9994
2019-05-02T01:20:58.126Z,84.3717
2019-05-02T01:22:03.277Z,84.0833
2019-05-02T01:23:06.325Z,83.9323
2019-05-02T01:24:09.288Z,83.9124
2019-05-02T01:25:15.730Z,84.4617
2019-05-02T01:26:24.280Z,85.1316
2019-05-02T01:27:28.302Z,84.8188
2019-05-02T01:28:31.329Z,84.7700
2019-05-02T01:29:34.316Z,84.6082
2019-05-02T01:30:42.239Z,84.8737
2019-05-02T01:31:45.290Z,85.0629
2019-05-02T01:32:48.306Z,85.1392
2019-05-02T01:33:51.302Z,85.0355
2019-05-02T01:34:56.214Z,84.7471
2019-05-02T01:36:01.635Z,85.0843
2019-05-02T01:37:07.299Z,85.3040
2019-05-02T01:38:10.301Z,85.4246
2019-05-02T01:39:13.335Z,85.3956
2019-05-02T01:40:17.685Z,85.5695
2019-05-02T01:41:24.063Z,85.7359
2019-05-02T01:42:39.571Z,85.6474
2019-05-02T01:43:38.281Z,85.9266
2019-05-02T01:44:41.334Z,85.9815
2019-05-02T01:45:46.587Z,86.2013
2019-05-02T01:46:49.315Z,86.1250
2019-05-02T01:47:51.282Z,86.3447
2019-05-02T01:48:54.288Z,86.1967
2019-05-02T01:49:59.145Z,86.1204
2019-05-02T01:51:04.345Z,86.1524
2019-05-02T01:52:10.292Z,86.1021
2019-05-02T01:53:13.293Z,86.0731
2019-05-02T01:54:16.274Z,86.1463
2019-05-02T01:55:21.184Z,86.4546
2019-05-02T01:56:28.437Z,86.3844
2019-05-02T01:57:33.283Z,86.3722
2019-05-02T01:58:35.303Z,86.5675
2019-05-02T01:59:38.272Z,86.7887
2019-05-02T02:00:44.753Z,86.6102
2019-05-02T02:01:53.119Z,86.7063
2019-05-02T02:02:57.319Z,86.5873
2019-05-02T02:04:00.279Z,86.7369
2019-05-02T02:05:03.318Z,86.7002
2019-05-02T02:06:08.143Z,86.4820
2019-05-02T02:07:15.075Z,86.6285
2019-05-02T02:08:21.326Z,86.4805
2019-05-02T02:09:24.313Z,86.2394
2019-05-02T02:10:27.314Z,86.2654
2019-05-02T02:11:33.898Z,86.2989
2019-05-02T02:12:41.252Z,86.4500
2019-05-02T02:13:46.284Z,86.3661
2019-05-02T02:14:53.372Z,86.1372
2019-05-02T02:16:00.147Z,86.0609
2019-05-02T02:17:05.306Z,86.1570
2019-05-02T02:18:08.267Z,86.0319
2019-05-02T02:19:11.305Z,86.2104
2019-05-02T02:20:14.130Z,86.1936
2019-05-02T02:21:20.172Z,86.1738
2019-05-02T02:22:26.291Z,86.2058
2019-05-02T02:23:29.286Z,86.1097
2019-05-02T02:24:32.298Z,86.0868
2019-05-02T02:25:36.329Z,86.0471
2019-05-02T02:26:43.556Z,86.1570
2019-05-02T02:27:50.252Z,85.9739
2019-05-02T02:28:53.320Z,85.9998
2019-05-02T02:29:56.286Z,85.7176
2019-05-02T02:31:04.968Z,85.6245
2019-05-02T02:32:07.312Z,85.6672
2019-05-02T02:33:10.306Z,85.5802
2019-05-02T02:34:13.281Z,85.6107
2019-05-02T02:35:16.298Z,85.6992
2019-05-02T02:36:29.948Z,85.7572
2019-05-02T02:37:27.294Z,85.7221
2019-05-02T02:38:33.662Z,85.9220
2019-05-02T02:39:38.271Z,86.0380
2019-05-02T02:40:40.289Z,86.0563
2019-05-02T02:41:45.380Z,85.9403
2019-05-02T02:42:50.330Z,86.0822
2019-05-02T02:43:54.824Z,86.0746
2019-05-02T02:45:01.326Z,85.8808
2019-05-02T02:46:04.301Z,85.7908
2019-05-02T02:47:12.117Z,85.7084
2019-05-02T02:48:15.337Z,86.3264
2019-05-02T02:49:21.248Z,86.2669
2019-05-02T02:50:26.308Z,86.9291
2019-05-02T02:51:29.281Z,86.3661
2019-05-02T02:52:37.941Z,86.0334
2019-05-02T02:53:40.297Z,86.0456
2019-05-02T02:54:44.931Z,86.0883
2019-05-02T02:55:48.273Z,86.4958
2019-05-02T02:56:51.332Z,86.8055
2019-05-02T02:57:58.469Z,86.8620
2019-05-02T02:59:02.334Z,86.9154
2019-05-02T03:00:07.639Z,87.0527
2019-05-02T03:01:27.372Z,86.9261
2019-05-02T03:02:23.297Z,87.0115
2019-05-02T03:03:27.931Z,87.2053
2019-05-02T03:04:33.322Z,87.3320
2019-05-02T03:05:36.322Z,87.4510
2019-05-02T03:06:45.070Z,87.3472
2019-05-02T03:07:47.298Z,87.0985
2019-05-02T03:08:50.302Z,87.2053
2019-05-02T03:09:53.270Z,87.3960
2019-05-02T03:10:56.322Z,87.4479
2019-05-02T03:12:02.042Z,87.2282
2019-05-02T03:13:07.319Z,87.4098
2019-05-02T03:14:10.283Z,87.5532
2019-05-02T03:15:13.292Z,87.3411
2019-05-02T03:16:16.332Z,87.3777
2019-05-02T03:17:25.802Z,87.4281
2019-05-02T03:18:27.365Z,87.4510
2019-05-02T03:19:30.285Z,87.4159
2019-05-02T03:20:40.113Z,87.5608
2019-05-02T03:21:41.287Z,87.7180
2019-05-02T03:22:43.561Z,87.5425
2019-05-02T03:23:46.289Z,87.4983
2019-05-02T03:24:49.336Z,87.5746
2019-05-02T03:25:52.326Z,87.8416
2019-05-02T03:26:57.851Z,87.7348
2019-05-02T03:28:01.307Z,87.5303
2019-05-02T03:29:04.280Z,87.3594
2019-05-02T03:30:07.332Z,87.7226
2019-05-02T03:31:24.246Z,87.7546
2019-05-02T03:32:32.172Z,87.8447
2019-05-02T03:33:26.285Z,87.8126
2019-05-02T03:34:44.957Z,87.9881
2019-05-02T03:35:43.923Z,87.9469
2019-05-02T03:36:45.335Z,87.5746
2019-05-02T03:37:51.485Z,87.6799
2019-05-02T03:38:56.305Z,87.5700
2019-05-02T03:40:00.595Z,87.6219
2019-05-02T03:41:04.293Z,87.6402
2019-05-02T03:42:07.345Z,87.3274
2019-05-02T03:43:10.297Z,87.7852
2019-05-02T03:44:24.596Z,87.3823
2019-05-02T03:45:21.279Z,87.4937
2019-05-02T03:46:24.320Z,87.3594
2019-05-02T03:47:27.325Z,87.5975
2019-05-02T03:48:30.295Z,87.6661
2019-05-02T03:49:33.277Z,87.5212
2019-05-02T03:50:36.291Z,87.3701
2019-05-02T03:51:39.329Z,87.4372
2019-05-02T03:52:44.495Z,87.1092
2019-05-02T03:53:49.332Z,86.8757
2019-05-02T03:54:52.704Z,86.7048
2019-05-02T03:55:56.287Z,86.8345
2019-05-02T03:56:59.269Z,86.8620
2019-05-02T03:58:13.335Z,86.6834
2019-05-02T03:59:10.279Z,86.8879
2019-05-02T04:00:20.756Z,86.7918
2019-05-02T04:01:21.279Z,86.9337
2019-05-02T04:02:24.332Z,86.4668
2019-05-02T04:03:27.324Z,86.8788
2019-05-02T04:04:30.299Z,86.7796
2019-05-02T04:05:33.855Z,86.3996
2019-05-02T04:06:41.288Z,86.8254
2019-05-02T04:07:44.311Z,87.1458
2019-05-02T04:08:47.285Z,87.2785
2019-05-02T04:09:50.336Z,87.5837
2019-05-02T04:10:59.440Z,87.6524
2019-05-02T04:12:01.305Z,87.8508
2019-05-02T04:13:04.267Z,87.8874
2019-05-02T04:14:14.642Z,88.0415
2019-05-02T04:15:15.377Z,88.0827
2019-05-02T04:16:18.287Z,88.2673
2019-05-02T04:17:21.313Z,88.1621
2019-05-02T04:18:24.289Z,88.0110
2019-05-02T04:19:28.535Z,88.3955
2019-05-02T04:20:35.290Z,88.7114
2019-05-02T04:21:38.320Z,88.6686
2019-05-02T04:22:42.935Z,88.6656
2019-05-02T04:23:49.324Z,88.3360
2019-05-02T04:24:56.705Z,87.6722
2019-05-02T04:26:00.349Z,87.6661
2019-05-02T04:27:03.269Z,87.1778
2019-05-02T04:28:12.121Z,87.0451
2019-05-02T04:29:14.309Z,86.6194
2019-05-02T04:30:17.279Z,86.5537
2019-05-02T04:31:24.720Z,86.4317
2019-05-02T04:32:29.296Z,86.5949
2019-05-02T04:33:34.644Z,86.5446
2019-05-02T04:34:39.278Z,86.5537
2019-05-02T04:35:42.294Z,86.7613
2019-05-02T04:36:46.603Z,86.5126
2019-05-02T04:37:50.290Z,86.7292
2019-05-02T04:38:52.810Z,86.7384
2019-05-02T04:39:59.150Z,86.4271
2019-05-02T04:41:04.288Z,86.1646
2019-05-02T04:42:13.080Z,85.9190
2019-05-02T04:43:18.225Z,85.6168
2019-05-02T04:44:21.291Z,85.1163
2019-05-02T04:45:29.335Z,85.2369
2019-05-02T04:46:32.274Z,85.0385
2019-05-02T04:47:35.348Z,85.1575
2019-05-02T04:48:43.730Z,85.1942
2019-05-02T04:49:49.096Z,85.4826
2019-05-02T04:50:59.431Z,85.3727
2019-05-02T04:52:10.646Z,85.3010
2019-05-02T04:53:10.301Z,85.0706
2019-05-02T04:54:22.067Z,85.1438
2019-05-02T04:55:28.200Z,84.9943
2019-05-02T04:56:29.324Z,84.8981
2019-05-02T04:57:37.083Z,84.6738
2019-05-02T04:58:40.824Z,85.0538
2019-05-02T04:59:44.304Z,85.1774
2019-05-02T05:00:53.592Z,85.2125
2019-05-02T05:01:58.452Z,85.2323
2019-05-02T05:03:08.422Z,84.8051
2019-05-02T05:04:11.342Z,84.8600
2019-05-02T05:05:17.369Z,84.8386
2019-05-02T05:06:22.299Z,84.4709
2019-05-02T05:07:25.288Z,84.0787
2019-05-02T05:08:31.946Z,84.3854
2019-05-02T05:09:35.312Z,84.3931
2019-05-02T05:10:41.595Z,84.7837
2019-05-02T05:11:48.123Z,84.7242
2019-05-02T05:12:51.296Z,84.5167
2019-05-02T05:13:57.678Z,83.7629
2019-05-02T05:15:02.311Z,84.0146
2019-05-02T05:16:08.143Z,83.2578
2019-05-02T05:17:13.280Z,83.5004
2019-05-02T05:18:17.649Z,83.4913
2019-05-02T05:19:23.069Z,83.3097
2019-05-02T05:20:28.332Z,83.2349
2019-05-02T05:21:31.319Z,83.5660
2019-05-02T05:22:38.564Z,83.8270
2019-05-02T05:23:42.301Z,83.4516
2019-05-02T05:24:45.319Z,83.5431
2019-05-02T05:25:50.571Z,83.4409
2019-05-02T05:26:57.831Z,83.3448
2019-05-02T05:28:05.813Z,83.5599
2019-05-02T05:29:09.299Z,83.5843
2019-05-02T05:30:15.664Z,83.4333
2019-05-02T05:31:23.986Z,83.4882
2019-05-02T05:32:28.345Z,83.7201
2019-05-02T05:33:31.292Z,83.6713
2019-05-02T05:34:34.305Z,83.5874
2019-05-02T05:35:38.558Z,83.5187
2019-05-02T05:36:41.357Z,83.6698
2019-05-02T05:37:51.485Z,83.7171
2019-05-02T05:38:52.316Z,84.0238
2019-05-02T05:39:55.298Z,84.1825
2019-05-02T05:41:02.880Z,84.1688
2019-05-02T05:42:08.405Z,83.8270
2019-05-02T05:43:15.862Z,84.1886
2019-05-02T05:44:23.313Z,84.1825
2019-05-02T05:45:29.307Z,84.3900
2019-05-02T05:46:33.447Z,84.5777
2019-05-02T05:47:40.325Z,84.1199
2019-05-02T05:48:43.309Z,83.9719
2019-05-02T05:49:47.733Z,83.7125
2019-05-02T05:50:51.299Z,83.3951
2019-05-02T05:51:59.524Z,83.2593
2019-05-02T05:53:02.346Z,82.5864
2019-05-02T05:54:05.328Z,82.5406
2019-05-02T05:55:12.617Z,82.8519
2019-05-02T05:56:18.050Z,82.2141
2019-05-02T05:57:21.344Z,82.4430
2019-05-02T05:58:24.366Z,82.3652
2019-05-02T05:59:30.894Z,81.7929
2019-05-02T06:00:35.291Z,81.7700
2019-05-02T06:01:38.542Z,81.8891
2019-05-02T06:02:53.023Z,81.7884
2019-05-02T06:03:49.286Z,81.3443
2019-05-02T06:04:55.359Z,80.8423
2019-05-02T06:06:00.287Z,80.7874
2019-05-02T06:07:03.400Z,80.6485
2019-05-02T06:08:08.057Z,80.2915
2019-05-02T06:09:13.772Z,79.8154
2019-05-02T06:10:17.310Z,80.1266
2019-05-02T06:11:21.791Z,80.1175
2019-05-02T06:12:26.186Z,79.6048
2019-05-02T06:13:32.328Z,79.8840
2019-05-02T06:14:35.335Z,79.2294
2019-05-02T06:15:39.095Z,79.5239
2019-05-02T06:16:46.617Z,79.4232
2019-05-02T06:17:51.293Z,78.8403
2019-05-02T06:18:54.355Z,77.3663
2019-05-02T06:19:57.313Z,76.7086
2019-05-02T06:21:03.433Z,77.0840
2019-05-02T06:22:08.310Z,76.5484
2019-05-02T06:23:11.288Z,75.8572
2019-05-02T06:24:15.681Z,75.4894
2019-05-02T06:25:32.884Z,75.3491
2019-05-02T06:26:27.314Z,74.5968
2019-05-02T06:27:30.475Z,74.4259
2019-05-02T06:28:36.255Z,74.4640
2019-05-02T06:29:42.299Z,73.8216
2019-05-02T06:30:45.309Z,73.0663
2019-05-02T06:31:48.311Z,73.2601
2019-05-02T06:32:54.949Z,74.2260
2019-05-02T06:34:02.124Z,74.9065
2019-05-02T06:35:07.296Z,76.0266
2019-05-02T06:36:10.333Z,76.5057
2019-05-02T06:37:15.306Z,76.2051
2019-05-02T06:38:21.541Z,76.7987
2019-05-02T06:39:27.113Z,76.9558
2019-05-02T06:40:34.337Z,76.8231
2019-05-02T06:41:37.282Z,76.8627
2019-05-02T06:42:40.326Z,76.9680
2019-05-02T06:43:46.635Z,76.2737
2019-05-02T06:44:54.901Z,76.0494
2019-05-02T06:45:59.352Z,75.7610
2019-05-02T06:47:04.415Z,75.7870
2019-05-02T06:48:08.305Z,75.0042
2019-05-02T06:49:11.268Z,75.4757
2019-05-02T06:50:14.318Z,75.5673
2019-05-02T06:51:20.810Z,75.0240
2019-05-02T06:52:27.288Z,75.0912
2019-05-02T06:53:34.972Z,74.9660
2019-05-02T06:54:38.300Z,74.8196
2019-05-02T06:55:41.298Z,74.2214
2019-05-02T06:56:47.848Z,73.2738
2019-05-02T06:57:57.014Z,73.3150
2019-05-02T06:59:00.308Z,73.0175
2019-05-02T07:00:03.313Z,73.0571
2019-05-02T07:01:06.345Z,73.0358
2019-05-02T07:02:09.347Z,73.0953
2019-05-02T07:03:12.262Z,72.8527
2019-05-02T07:04:17.541Z,72.7291
2019-05-02T07:05:27.221Z,72.9061
2019-05-02T07:06:34.818Z,72.6589
2019-05-02T07:07:38.399Z,72.7047
2019-05-02T07:08:41.333Z,72.8023
2019-05-02T07:09:44.317Z,71.4839
2019-05-02T07:10:47.315Z,71.6854
2019-05-02T07:11:56.932Z,71.9539
2019-05-02T07:13:10.117Z,70.9239
2019-05-02T07:14:12.876Z,70.8232
2019-05-02T07:15:14.339Z,70.5714
2019-05-02T07:16:37.288Z,71.1757
2019-05-02T07:17:26.575Z,70.9331
2019-05-02T07:18:33.351Z,70.1930
2019-05-02T07:19:36.304Z,70.4845
2019-05-02T07:20:40.644Z,69.8940
2019-05-02T07:21:45.308Z,70.1274
2019-05-02T07:22:48.288Z,70.1274
2019-05-02T07:23:53.785Z,69.4652
2019-05-02T07:25:01.870Z,68.6900
2019-05-02T07:26:06.306Z,68.6351
2019-05-02T07:27:09.330Z,68.3436
2019-05-02T07:28:11.297Z,68.7144
2019-05-02T07:29:17.016Z,67.8996
2019-05-02T07:30:22.302Z,67.5227
2019-05-02T07:31:25.311Z,67.8950
2019-05-02T07:32:28.309Z,67.3182
2019-05-02T07:33:32.416Z,67.2953
2019-05-02T07:34:39.372Z,66.5110
2019-05-02T07:35:42.331Z,66.9108
2019-05-02T07:36:45.316Z,66.4240
2019-05-02T07:37:48.824Z,66.4881
2019-05-02T07:38:57.528Z,66.8009
2019-05-02T07:40:01.320Z,66.4332
2019-05-02T07:41:04.325Z,66.0212
2019-05-02T07:42:07.883Z,66.2928
2019-05-02T07:43:13.536Z,65.9632
2019-05-02T07:44:19.292Z,66.1051
2019-05-02T07:45:22.318Z,66.1326
2019-05-02T07:46:25.387Z,65.9632
2019-05-02T07:47:28.938Z,66.2196
2019-05-02T07:48:33.394Z,64.9195
2019-05-02T07:49:36.275Z,64.7211
2019-05-02T07:50:41.168Z,65.1850
2019-05-02T07:51:47.309Z,64.0635
2019-05-02T07:52:50.351Z,64.8646
2019-05-02T07:53:55.513Z,64.6677
2019-05-02T07:55:01.115Z,64.4389
2019-05-02T07:56:05.329Z,64.1901
2019-05-02T07:57:08.311Z,63.0793
2019-05-02T07:58:11.322Z,62.8901
2019-05-02T07:59:13.288Z,63.3387
2019-05-02T08:00:16.310Z,62.5711
2019-05-02T08:01:19.295Z,62.1042
2019-05-02T08:02:25.046Z,62.4979
2019-05-02T08:03:33.294Z,62.7665
2019-05-02T08:04:37.322Z,61.2345
2019-05-02T08:05:40.320Z,61.0605
2019-05-02T08:06:44.624Z,61.2848
2019-05-02T08:07:53.362Z,61.1002
2019-05-02T08:09:01.608Z,61.5671
2019-05-02T08:10:05.314Z,61.3428
2019-05-02T08:11:08.308Z,61.3306
2019-05-02T08:12:11.315Z,61.1231
2019-05-02T08:13:17.585Z,60.3357
2019-05-02T08:14:22.329Z,61.0498
2019-05-02T08:15:25.293Z,60.6531
2019-05-02T08:16:28.602Z,60.7904
2019-05-02T08:17:32.374Z,60.5371
2019-05-02T08:18:35.330Z,60.2441
2019-05-02T08:19:41.669Z,60.3830
2019-05-02T08:20:46.303Z,60.3830
2019-05-02T08:21:49.311Z,60.4044
2019-05-02T08:22:52.296Z,61.4115
2019-05-02T08:23:57.227Z,61.7426
2019-05-02T08:25:03.284Z,59.8154
2019-05-02T08:26:06.352Z,59.4949
2019-05-02T08:27:09.304Z,58.8525
2019-05-02T08:28:15.814Z,58.4878
2019-05-02T08:29:23.441Z,58.6374
2019-05-02T08:30:28.311Z,58.7335
2019-05-02T08:31:31.320Z,57.8424
2019-05-02T08:32:34.312Z,57.3663
2019-05-02T08:33:38.382Z,57.1557
2019-05-02T08:34:41.316Z,56.2387
2019-05-02T08:35:44.337Z,55.4299
2019-05-02T08:36:47.290Z,57.9370
2019-05-02T08:37:50.309Z,57.3205
2019-05-02T08:38:54.056Z,56.3088
2019-05-02T08:39:58.363Z,57.3831
2019-05-02T08:41:01.311Z,56.9528
2019-05-02T08:42:04.305Z,55.8236
2019-05-02T08:43:09.290Z,55.5108
2019-05-02T08:44:16.694Z,55.5154
2019-05-02T08:45:20.329Z,55.2560
2019-05-02T08:46:23.322Z,54.3069
2019-05-02T08:47:28.685Z,54.1802
2019-05-02T08:48:36.556Z,54.3984
2019-05-02T08:49:42.589Z,53.4646
2019-05-02T08:50:44.387Z,53.5531
2019-05-02T08:51:47.335Z,50.9514
2019-05-02T08:52:50.275Z,51.9188
2019-05-02T08:53:56.726Z,50.4906
2019-05-02T08:55:04.395Z,51.8547
2019-05-02T08:56:09.349Z,51.5206
2019-05-02T08:57:12.385Z,51.4153
2019-05-02T08:58:15.975Z,51.7540
2019-05-02T08:59:19.724Z,51.4549
2019-05-02T09:00:23.292Z,51.7632
2019-05-02T09:01:34.823Z,51.7113
2019-05-02T09:02:41.148Z,51.2459
2019-05-02T09:03:54.629Z,51.5373
2019-05-02T09:04:58.343Z,52.2286
2019-05-02T09:06:05.685Z,51.6564
2019-05-02T09:07:06.387Z,52.9152
2019-05-02T09:08:14.171Z,51.8990
2019-05-02T09:09:17.309Z,52.7245
2019-05-02T09:10:20.308Z,52.8435
2019-05-02T09:11:23.339Z,53.2097
2019-05-02T09:12:26.346Z,52.8298
2019-05-02T09:13:29.674Z,51.9905
2019-05-02T09:14:33.305Z,51.9051
2019-05-02T09:15:40.383Z,52.3293
2019-05-02T09:16:44.286Z,50.7378
2019-05-02T09:17:54.422Z,51.4824
2019-05-02T09:18:55.394Z,52.9976
2019-05-02T09:20:02.278Z,52.2972
2019-05-02T09:21:06.322Z,52.3400
2019-05-02T09:22:13.313Z,52.7520
2019-05-02T09:23:17.302Z,52.2255
2019-05-02T09:24:23.275Z,52.5628
2019-05-02T09:25:27.328Z,52.6101
2019-05-02T09:26:36.021Z,53.0251
2019-05-02T09:27:38.334Z,53.1716
2019-05-02T09:28:42.230Z,53.1411
2019-05-02T09:29:45.994Z,52.5261
2019-05-02T09:30:49.296Z,52.9397
2019-05-02T09:31:52.661Z,52.4910
2019-05-02T09:32:57.098Z,52.6421
2019-05-02T09:34:04.326Z,52.7047
2019-05-02T09:35:09.357Z,52.6726
2019-05-02T09:36:12.358Z,52.8695
2019-05-02T09:37:15.329Z,53.0114
2019-05-02T09:38:17.305Z,52.5551
2019-05-02T09:39:22.501Z,52.5917
2019-05-02T09:40:25.355Z,53.0358
2019-05-02T09:41:34.423Z,52.5460
2019-05-02T09:42:36.299Z,53.2265
2019-05-02T09:43:39.375Z,53.5302
2019-05-02T09:44:42.613Z,52.8298
2019-05-02T09:45:45.309Z,52.8298
2019-05-02T09:46:53.014Z,52.6192
2019-05-02T09:48:03.986Z,52.8984
2019-05-02T09:49:10.656Z,52.8054
2019-05-02T09:50:12.846Z,52.0317
2019-05-02T09:51:17.383Z,53.4020
2019-05-02T09:52:22.136Z,52.5826
2019-05-02T09:53:25.632Z,52.8695
2019-05-02T09:54:29.290Z,52.3583
2019-05-02T09:55:32.287Z,51.3558
2019-05-02T09:56:35.301Z,51.5877
2019-05-02T09:57:38.322Z,50.5684
2019-05-02T09:58:42.000Z,52.3629
2019-05-02T09:59:50.624Z,51.2947
2019-05-02T10:00:53.342Z,51.0979
2019-05-02T10:01:56.304Z,51.2947
2019-05-02T10:02:59.348Z,50.6630
2019-05-02T10:04:02.447Z,51.9493
2019-05-02T10:05:05.346Z,52.0317
2019-05-02T10:06:12.653Z,52.4910
2019-05-02T10:07:16.384Z,53.6843
2019-05-02T10:08:19.334Z,53.6065
2019-05-02T10:09:25.719Z,53.3227
2019-05-02T10:10:32.220Z,53.2769
2019-05-02T10:11:35.335Z,52.8481
2019-05-02T10:12:38.363Z,52.8740
2019-05-02T10:13:42.422Z,52.7428
2019-05-02T10:14:46.340Z,53.7072
2019-05-02T10:15:49.324Z,52.7321
2019-05-02T10:16:52.935Z,52.5780
2019-05-02T10:18:07.937Z,52.3995
2019-05-02T10:19:09.434Z,51.3878
2019-05-02T10:20:13.320Z,51.9005
2019-05-02T10:21:17.218Z,53.2860
2019-05-02T10:22:20.345Z,51.6381
2019-05-02T10:23:23.582Z,51.0353
2019-05-02T10:24:27.307Z,51.0308
2019-05-02T10:25:38.326Z,50.4158
2019-05-02T10:26:38.311Z,48.1041
2019-05-02T10:27:46.068Z,48.8334
2019-05-02T10:28:50.751Z,48.2155
2019-05-02T10:29:57.253Z,49.1112
2019-05-02T10:31:02.077Z,49.1951
2019-05-02T10:32:07.657Z,47.1260
2019-05-02T10:33:12.379Z,47.1015
2019-05-02T10:34:17.663Z,47.6829
2019-05-02T10:35:22.903Z,47.9545
2019-05-02T10:36:26.309Z,47.2251
2019-05-02T10:37:30.619Z,47.3259
2019-05-02T10:38:37.296Z,46.9474
2019-05-02T10:39:42.230Z,47.5105
2019-05-02T10:40:48.429Z,47.0298
2019-05-02T10:41:53.315Z,47.2572
2019-05-02T10:42:56.331Z,47.5639
2019-05-02T10:43:59.668Z,47.2175
2019-05-02T10:45:07.483Z,46.6117
2019-05-02T10:46:12.597Z,46.4210
2019-05-02T10:47:15.298Z,45.8793
2019-05-02T10:48:27.459Z,45.1514
2019-05-02T10:49:26.309Z,45.2262
2019-05-02T10:50:28.369Z,46.8742
2019-05-02T10:51:31.691Z,46.2242
2019-05-02T10:52:35.318Z,46.8818
2019-05-02T10:53:38.273Z,47.4006
2019-05-02T10:54:42.178Z,47.5883
2019-05-02T10:55:45.321Z,46.1372
2019-05-02T10:56:48.323Z,46.8696
2019-05-02T10:57:52.698Z,47.5456
2019-05-02T10:58:56.329Z,49.6971
2019-05-02T10:59:59.318Z,46.9062
2019-05-02T11:01:02.365Z,47.6051
2019-05-02T11:02:05.301Z,47.5746
2019-05-02T11:03:08.310Z,46.5339
2019-05-02T11:04:12.865Z,46.4759
2019-05-02T11:05:16.970Z,46.5354
2019-05-02T11:06:24.356Z,47.1977
2019-05-02T11:07:27.312Z,46.6636
2019-05-02T11:08:31.941Z,46.0349
2019-05-02T11:09:35.282Z,46.5354
2019-05-02T11:10:38.330Z,46.7170
2019-05-02T11:11:42.374Z,46.0807
2019-05-02T11:12:47.015Z,46.3416
2019-05-02T11:13:53.422Z,47.2480
2019-05-02T11:14:58.320Z,45.5543
2019-05-02T11:16:01.684Z,46.5126
2019-05-02T11:17:09.087Z,46.9017
2019-05-02T11:18:13.341Z,46.6865
2019-05-02T11:19:16.281Z,46.2547
2019-05-02T11:20:19.302Z,47.2999
2019-05-02T11:21:22.937Z,46.0716
2019-05-02T11:22:26.329Z,45.0477
2019-05-02T11:23:29.371Z,45.3849
2019-05-02T11:24:32.327Z,45.7877
2019-05-02T11:25:35.295Z,44.9043
2019-05-02T11:26:38.315Z,44.9287
2019-05-02T11:27:41.894Z,46.2684
2019-05-02T11:28:44.317Z,46.3645
2019-05-02T11:29:47.323Z,47.2313
2019-05-02T11:30:52.307Z,46.2593
2019-05-02T11:31:55.294Z,46.0670
2019-05-02T11:32:58.352Z,46.5751
2019-05-02T11:34:01.932Z,45.9754
2019-05-02T11:35:05.283Z,44.8966
2019-05-02T11:36:08.321Z,44.6632
2019-05-02T11:37:12.054Z,45.6977
2019-05-02T11:38:15.840Z,45.2445
2019-05-02T11:39:27.180Z,46.5614
2019-05-02T11:40:27.312Z,47.1077
2019-05-02T11:41:31.797Z,45.6291
2019-05-02T11:42:35.291Z,44.9653
2019-05-02T11:43:41.414Z,45.6336
2019-05-02T11:44:45.337Z,46.1768
2019-05-02T11:45:48.322Z,46.5537
2019-05-02T11:46:52.089Z,47.4418
2019-05-02T11:47:56.102Z,45.5589
2019-05-02T11:49:03.355Z,45.6687
2019-05-02T11:50:06.337Z,45.2567
2019-05-02T11:51:14.884Z,45.8701
2019-05-02T11:52:17.316Z,45.0233
2019-05-02T11:53:27.000Z,44.6571
2019-05-02T11:54:29.352Z,44.8814
2019-05-02T11:55:32.330Z,44.8554
2019-05-02T11:56:35.315Z,44.1688
2019-05-02T11:57:37.315Z,44.2908
2019-05-02T11:58:47.863Z,45.9861
2019-05-02T11:59:48.367Z,45.3941
2019-05-02T12:00:52.288Z,45.6962
2019-05-02T12:01:59.437Z,46.2181
2019-05-02T12:03:03.308Z,45.8534
2019-05-02T12:04:11.711Z,46.4347
2019-05-02T12:05:14.320Z,46.0548
2019-05-02T12:06:19.617Z,45.8808
2019-05-02T12:07:23.324Z,45.6413
2019-05-02T12:08:26.318Z,45.8488
2019-05-02T12:09:29.298Z,46.2104
2019-05-02T12:10:36.524Z,46.2181
2019-05-02T12:11:41.820Z,46.3966
2019-05-02T12:12:45.319Z,46.5431
2019-05-02T12:13:52.909Z,46.0807
2019-05-02T12:14:58.318Z,46.9184
2019-05-02T12:16:02.693Z,47.6921
2019-05-02T12:17:05.393Z,47.5517
2019-05-02T12:18:08.291Z,47.7241
2019-05-02T12:19:14.351Z,48.0858
2019-05-02T12:20:18.335Z,49.4972
2019-05-02T12:21:22.895Z,51.0353
2019-05-02T12:22:26.307Z,52.4086
2019-05-02T12:23:29.313Z,55.2224
2019-05-02T12:24:31.873Z,56.5591
2019-05-02T12:25:35.325Z,57.9599
2019-05-02T12:26:38.331Z,56.7468
2019-05-02T12:27:42.463Z,57.5769
2019-05-02T12:28:45.288Z,59.5590
2019-05-02T12:29:57.857Z,60.4273
2019-05-02T12:30:58.297Z,59.5987
2019-05-02T12:32:02.598Z,61.0330
2019-05-02T12:33:06.312Z,59.9603
2019-05-02T12:34:09.277Z,60.7477
2019-05-02T12:35:12.318Z,60.5386
2019-05-02T12:36:15.280Z,61.0605
2019-05-02T12:37:18.379Z,61.2787
2019-05-02T12:38:23.081Z,61.0147
2019-05-02T12:39:26.322Z,61.5274
2019-05-02T12:40:29.325Z,61.7685
2019-05-02T12:41:33.082Z,61.7609
2019-05-02T12:42:36.342Z,61.6999
2019-05-02T12:43:39.318Z,61.9425
2019-05-02T12:44:42.700Z,61.9303
2019-05-02T12:45:45.326Z,62.7314
2019-05-02T12:46:48.323Z,63.9445
2019-05-02T12:47:52.304Z,64.5762
2019-05-02T12:48:55.294Z,66.9566
2019-05-02T12:49:58.344Z,67.0573
2019-05-02T12:51:01.997Z,66.8315
2019-05-02T12:52:05.339Z,65.9846
2019-05-02T12:53:08.317Z,67.1260
2019-05-02T12:54:12.370Z,68.0262
2019-05-02T12:55:15.277Z,67.5593
2019-05-02T12:56:18.304Z,68.3299
2019-05-02T12:57:21.978Z,69.0562
2019-05-02T12:58:25.341Z,68.6503
2019-05-02T12:59:28.300Z,69.7108
2019-05-02T13:00:31.988Z,68.7968